Promised Land, New York
Current Conditions -  °F | °C
As of 4:56 PM on Wednesday 22 Oct 2014 (Local Time) from KGON Reporting Station
Light Rain Light Rain  
Wind Chill: 52°   Ceiling: 1800
Heat Index: 52°   Visibility: 4mi
Dew Point: 49°   Wind: 24mph
Humidity: 89%   Direction: 20°NNE
Pressure: 29.77"   Gusts: 37mph
Location:  40.9764°N, 72.1316°W
Report Text: KGON 222056Z 02021G32KT 4SM -RA BR OVC018 11/09 A2977 RMK AO2 PK WND 02032/2056 RAE16B41 SLP079 P0000 60001 T01110094 58030
Loading
Personal Weather Stations






























Interactive Weather Map
Tropical Storm Tracking
New forecast layout! Learn more

10-Day Weather Forecast

Advertisements
Track Severe Weather on mobile